Tradition — WDC5696 — position and weather

sailwx.info

Track history (hours):
 
Tides and Currents Weather Stations Pressure Air Temp Water Temp Dewpoint Dewpoint Depression Visibility Wind Speed Wind Dir Waves Ship Positions

Tradition

Owner: Lovrovich, Tom, gig harbor, WA. More information available from US FCC via Universal Licensing System and Coast Guard Vessel Documentation Center.

Last reported at 2018-Jul-06 23:38 UTC. Time now 2018-Jul-21 17:31 UTC.
Position N 54°22' W 130°35'.
Warning: this ship's position is 14 days out of date.

Length 19 m.

Type: Fishing. MMSI: 367045150.

Date/timePositionNaut miles runAvg speedWind from/ knotsBaromVisibWave heightAir tempDewpointWater temp
2018-Jul-06 23:38N 54°22' W 130°35'1 8.9
2018-Jul-06 23:30N 54°21' W 130°35'4 8.6
2018-Jul-06 23:00N 54°17' W 130°32'4 8.8
2018-Jul-06 22:29N 54°13' W 130°29'5 9.4
2018-Jul-06 22:00N 54°09' W 130°25'5 9.5
2018-Jul-06 21:30N 54°05' W 130°20'5 9.5
2018-Jul-06 21:00N 54°02' W 130°14'5 9.8
2018-Jul-06 20:30N 53°57' W 130°12'5 8.4
2018-Jul-06 19:58N 53°54' W 130°07'4 8.9
2018-Jul-06 19:30N 53°51' W 130°02'101 7.7
2018-Jul-06 06:20N 52°27' W 128°28'23 7.0
2018-Jul-06 03:05N 52°08' W 128°08'1 8.9
2018-Jul-06 02:57N 52°07' W 128°08'9 7.4
2018-Jul-06 01:41N 52°01' W 127°56'2 8.0
2018-Jul-06 01:29N 51°60' W 127°55'4 8.2
2018-Jul-06 01:00N 51°56' W 127°55'4 8.6
2018-Jul-06 00:28N 51°51' W 127°55'4 8.8
2018-Jul-06 00:00N 51°47' W 127°54'4 8.4
2018-Jul-05 23:30N 51°43' W 127°54'4 8.3
2018-Jul-05 23:00N 51°39' W 127°53'4 8.0
2018-Jul-05 22:30N 51°35' W 127°53'25 8.3
2018-Jul-05 19:28N 51°10' W 127°49'6 8.7
2018-Jul-05 18:44N 51°05' W 127°42'3 9.2
2018-Jul-05 18:26N 51°03' W 127°39'5 9.3
2018-Jul-05 17:55N 50°60' W 127°34'4 9.1
2018-Jul-05 17:29N 50°57' W 127°29'5 9.5
2018-Jul-05 17:00N 50°54' W 127°23'85 9.1
2018-Jul-05 07:42N 50°16' W 125°24'4 9.6
2018-Jul-05 07:19N 50°13' W 125°22'3 9.4
2018-Jul-05 07:00N 50°10' W 125°22'5 9.8
2018-Jul-05 06:29N 50°06' W 125°17'5 9.6
2018-Jul-05 06:00N 50°02' W 125°13'5 8.5
2018-Jul-05 05:22N 49°57' W 125°08'3 8.2
2018-Jul-05 04:59N 49°55' W 125°04'5 8.9
2018-Jul-05 04:28N 49°52' W 124°59'153 8.1
2018-Jul-04 09:32N 47°55' W 122°31'0 9.8
2018-Jul-04 09:30N 47°54' W 122°31'5 9.3
2018-Jul-04 09:00N 47°50' W 122°29'5 8.7
2018-Jul-04 08:28N 47°45' W 122°28'4 8.9
2018-Jul-04 07:59N 47°41' W 122°29'5 8.9
2018-Jul-04 07:28N 47°37' W 122°28'4 8.7
2018-Jul-04 07:00N 47°32' W 122°28'5 9.0
2018-Jul-04 06:31N 47°28' W 122°31'5 8.4
2018-Jul-04 05:57N 47°24' W 122°32'4 8.2
2018-Jul-04 05:30N 47°20' W 122°34'1 0.8
2018-Jul-04 04:06N 47°20' W 122°35'0 0.1
2018-Jul-04 04:00N 47°20' W 122°35'  
2018-Jun-29 17:48N 47°18' W 122°29'3 1.6
2018-Jun-29 15:58N 47°16' W 122°26'8 1.3
2018-Jun-29 09:55N 47°20' W 122°35'0 0.0
2018-Jun-29 09:07N 47°20' W 122°35'0 0.0
2018-Jun-29 08:58N 47°20' W 122°35'0 0.0
2018-Jun-29 08:28N 47°20' W 122°35'0 0.0
2018-Jun-29 07:58N 47°20' W 122°35'0 0.0
2018-Jun-29 07:28N 47°20' W 122°35'0 0.0
2018-Jun-29 06:55N 47°20' W 122°35'0 0.0
2018-Jun-29 05:34N 47°20' W 122°35'0 0.0
2018-Jun-29 05:16N 47°20' W 122°35'0 0.0
2018-Jun-29 04:58N 47°20' W 122°35'0 0.0
2018-Jun-29 03:28N 47°20' W 122°35'0 0.0
2018-Jun-29 02:52N 47°20' W 122°35'0 0.0
2018-Jun-29 02:01N 47°20' W 122°35'0 0.0
2018-Jun-29 01:34N 47°20' W 122°35'0 0.0
2018-Jun-29 01:10N 47°20' W 122°35'0 0.0
2018-Jun-29 00:52N 47°20' W 122°35'0 0.0
2018-Jun-29 00:28N 47°20' W 122°35'0 0.0
2018-Jun-28 22:28N 47°20' W 122°35'0 0.0
2018-Jun-28 21:58N 47°20' W 122°35'0 0.0
2018-Jun-28 21:22N 47°20' W 122°35'0 0.0
2018-Jun-28 20:52N 47°20' W 122°35'0 0.0
2018-Jun-28 19:58N 47°20' W 122°35'0 0.0
2018-Jun-28 19:22N 47°20' W 122°35'0 0.0
2018-Jun-28 18:58N 47°20' W 122°35'0 0.0
2018-Jun-28 17:13N 47°20' W 122°35'0 0.0
2018-Jun-28 16:52N 47°20' W 122°35'0 0.0
2018-Jun-28 11:49N 47°20' W 122°35'0 0.0
2018-Jun-28 10:25N 47°20' W 122°35'0 0.0
2018-Jun-28 09:40N 47°20' W 122°35'0 0.0
2018-Jun-28 09:22N 47°20' W 122°35'0 0.0
2018-Jun-28 08:52N 47°20' W 122°35'0 0.0
2018-Jun-28 08:19N 47°20' W 122°35'0 0.0
2018-Jun-27 21:55N 47°20' W 122°35'0 0.0
2018-Jun-27 20:04N 47°20' W 122°35'0 0.0
2018-Jun-27 07:32N 47°20' W 122°35'0 0.0
2018-Jun-27 05:14N 47°20' W 122°35'  
Track history (hours):
 
Tides and Currents Weather Stations Pressure Air Temp Water Temp Dewpoint Dewpoint Depression Visibility Wind Speed Wind Dir Waves Ship Positions

Tradition

Owner: Lovrovich, Tom, gig harbor, WA. More information available from US FCC via Universal Licensing System and Coast Guard Vessel Documentation Center.

Last reported at 2018-Jul-06 23:38 UTC. Time now 2018-Jul-21 17:31 UTC.
Position N 54°22' W 130°35'.
Warning: this ship's position is 14 days out of date.

Length 19 m.

Type: Fishing. MMSI: 367045150.

Date/timePositionNaut miles runAvg speedWind from/ knotsBaromVisibWave heightAir tempDewpointWater temp
2018-Jul-06 23:38N 54°22' W 130°35'1 8.9
2018-Jul-06 23:30N 54°21' W 130°35'4 8.6
2018-Jul-06 23:00N 54°17' W 130°32'4 8.8
2018-Jul-06 22:29N 54°13' W 130°29'5 9.4
2018-Jul-06 22:00N 54°09' W 130°25'5 9.5
2018-Jul-06 21:30N 54°05' W 130°20'5 9.5
2018-Jul-06 21:00N 54°02' W 130°14'5 9.8
2018-Jul-06 20:30N 53°57' W 130°12'5 8.4
2018-Jul-06 19:58N 53°54' W 130°07'4 8.9
2018-Jul-06 19:30N 53°51' W 130°02'101 7.7
2018-Jul-06 06:20N 52°27' W 128°28'23 7.0
2018-Jul-06 03:05N 52°08' W 128°08'1 8.9
2018-Jul-06 02:57N 52°07' W 128°08'9 7.4
2018-Jul-06 01:41N 52°01' W 127°56'2 8.0
2018-Jul-06 01:29N 51°60' W 127°55'4 8.2
2018-Jul-06 01:00N 51°56' W 127°55'4 8.6
2018-Jul-06 00:28N 51°51' W 127°55'4 8.8
2018-Jul-06 00:00N 51°47' W 127°54'4 8.4
2018-Jul-05 23:30N 51°43' W 127°54'4 8.3
2018-Jul-05 23:00N 51°39' W 127°53'4 8.0
2018-Jul-05 22:30N 51°35' W 127°53'25 8.3
2018-Jul-05 19:28N 51°10' W 127°49'6 8.7
2018-Jul-05 18:44N 51°05' W 127°42'3 9.2
2018-Jul-05 18:26N 51°03' W 127°39'5 9.3
2018-Jul-05 17:55N 50°60' W 127°34'4 9.1
2018-Jul-05 17:29N 50°57' W 127°29'5 9.5
2018-Jul-05 17:00N 50°54' W 127°23'85 9.1
2018-Jul-05 07:42N 50°16' W 125°24'4 9.6
2018-Jul-05 07:19N 50°13' W 125°22'3 9.4
2018-Jul-05 07:00N 50°10' W 125°22'5 9.8
2018-Jul-05 06:29N 50°06' W 125°17'5 9.6
2018-Jul-05 06:00N 50°02' W 125°13'5 8.5
2018-Jul-05 05:22N 49°57' W 125°08'3 8.2
2018-Jul-05 04:59N 49°55' W 125°04'5 8.9
2018-Jul-05 04:28N 49°52' W 124°59'153 8.1
2018-Jul-04 09:32N 47°55' W 122°31'0 9.8
2018-Jul-04 09:30N 47°54' W 122°31'5 9.3
2018-Jul-04 09:00N 47°50' W 122°29'5 8.7
2018-Jul-04 08:28N 47°45' W 122°28'4 8.9
2018-Jul-04 07:59N 47°41' W 122°29'5 8.9
2018-Jul-04 07:28N 47°37' W 122°28'4 8.7
2018-Jul-04 07:00N 47°32' W 122°28'5 9.0
2018-Jul-04 06:31N 47°28' W 122°31'5 8.4
2018-Jul-04 05:57N 47°24' W 122°32'4 8.2
2018-Jul-04 05:30N 47°20' W 122°34'1 0.8
2018-Jul-04 04:06N 47°20' W 122°35'0 0.1
2018-Jul-04 04:00N 47°20' W 122°35'  
2018-Jun-29 17:48N 47°18' W 122°29'3 1.6
2018-Jun-29 15:58N 47°16' W 122°26'8 1.3
2018-Jun-29 09:55N 47°20' W 122°35'0 0.0
2018-Jun-29 09:07N 47°20' W 122°35'0 0.0
2018-Jun-29 08:58N 47°20' W 122°35'0 0.0
2018-Jun-29 08:28N 47°20' W 122°35'0 0.0
2018-Jun-29 07:58N 47°20' W 122°35'0 0.0
2018-Jun-29 07:28N 47°20' W 122°35'0 0.0
2018-Jun-29 06:55N 47°20' W 122°35'0 0.0
2018-Jun-29 05:34N 47°20' W 122°35'0 0.0
2018-Jun-29 05:16N 47°20' W 122°35'0 0.0
2018-Jun-29 04:58N 47°20' W 122°35'0 0.0
2018-Jun-29 03:28N 47°20' W 122°35'0 0.0
2018-Jun-29 02:52N 47°20' W 122°35'0 0.0
2018-Jun-29 02:01N 47°20' W 122°35'0 0.0
2018-Jun-29 01:34N 47°20' W 122°35'0 0.0
2018-Jun-29 01:10N 47°20' W 122°35'0 0.0
2018-Jun-29 00:52N 47°20' W 122°35'0 0.0
2018-Jun-29 00:28N 47°20' W 122°35'0 0.0
2018-Jun-28 22:28N 47°20' W 122°35'0 0.0
2018-Jun-28 21:58N 47°20' W 122°35'0 0.0
2018-Jun-28 21:22N 47°20' W 122°35'0 0.0
2018-Jun-28 20:52N 47°20' W 122°35'0 0.0
2018-Jun-28 19:58N 47°20' W 122°35'0 0.0
2018-Jun-28 19:22N 47°20' W 122°35'0 0.0
2018-Jun-28 18:58N 47°20' W 122°35'0 0.0
2018-Jun-28 17:13N 47°20' W 122°35'0 0.0
2018-Jun-28 16:52N 47°20' W 122°35'0 0.0
2018-Jun-28 11:49N 47°20' W 122°35'0 0.0
2018-Jun-28 10:25N 47°20' W 122°35'0 0.0
2018-Jun-28 09:40N 47°20' W 122°35'0 0.0
2018-Jun-28 09:22N 47°20' W 122°35'0 0.0
2018-Jun-28 08:52N 47°20' W 122°35'0 0.0
2018-Jun-28 08:19N 47°20' W 122°35'0 0.0
2018-Jun-27 21:55N 47°20' W 122°35'0 0.0
2018-Jun-27 20:04N 47°20' W 122°35'0 0.0
2018-Jun-27 07:32N 47°20' W 122°35'0 0.0
2018-Jun-27 05:14N 47°20' W 122°35'  

Dump ship's entire track history